createdAt,value
2018-04-30T00:00:52.009Z,9.20
2018-04-30T00:03:20.890Z,10.00
2018-04-30T00:05:49.783Z,9.80
2018-04-30T00:08:18.663Z,9.32
2018-04-30T00:10:46.810Z,11.60
2018-04-30T00:13:14.922Z,9.77
2018-04-30T00:15:43.036Z,9.10
2018-04-30T00:18:11.152Z,9.10
2018-04-30T00:20:39.258Z,10.32
2018-04-30T00:23:08.141Z,10.40
2018-04-30T00:25:36.250Z,11.98
2018-04-30T00:28:05.129Z,10.65
2018-04-30T00:30:34.009Z,12.27
2018-04-30T00:33:02.152Z,10.43
2018-04-30T00:35:30.261Z,11.00
2018-04-30T00:37:58.390Z,11.32
2018-04-30T00:40:26.514Z,10.13
2018-04-30T00:42:54.623Z,9.75
2018-04-30T00:45:23.508Z,13.07
2018-04-30T00:47:52.374Z,10.07
2018-04-30T00:50:20.499Z,9.57
2018-04-30T00:52:48.605Z,8.95
2018-04-30T00:55:16.721Z,9.93
2018-04-30T00:57:44.829Z,8.90
2018-04-30T01:00:12.958Z,10.45
2018-04-30T01:02:41.068Z,9.30
2018-04-30T01:05:09.975Z,8.85
2018-04-30T01:07:38.089Z,8.60
2018-04-30T01:10:06.199Z,9.35
2018-04-30T01:12:34.316Z,8.60
2018-04-30T01:15:02.440Z,10.43
2018-04-30T01:17:30.545Z,8.90
2018-04-30T01:19:59.421Z,9.77
2018-04-30T01:22:27.551Z,9.68
2018-04-30T01:24:55.654Z,10.45
2018-04-30T01:27:23.797Z,10.55
2018-04-30T01:29:51.903Z,9.63
2018-04-30T01:32:20.011Z,9.65
2018-04-30T01:34:48.906Z,9.05
2018-04-30T01:37:17.768Z,8.77
2018-04-30T01:39:45.882Z,11.48
2018-04-30T01:42:14.004Z,8.43
2018-04-30T01:44:42.130Z,9.57
2018-04-30T01:47:10.242Z,10.02
2018-04-30T01:49:38.361Z,8.05
2018-04-30T01:52:06.478Z,10.15
2018-04-30T01:54:35.377Z,8.57
2018-04-30T01:57:04.274Z,8.65
2018-04-30T01:59:33.149Z,7.93
2018-04-30T02:02:01.285Z,9.43
2018-04-30T02:04:29.390Z,9.05
2018-04-30T02:06:57.514Z,7.87
2018-04-30T02:09:25.628Z,9.68
2018-04-30T02:11:53.769Z,10.43
2018-04-30T02:14:21.890Z,8.05
2018-04-30T02:16:50.024Z,8.20
2018-04-30T02:19:18.126Z,10.27
2018-04-30T02:21:46.227Z,8.95
2018-04-30T02:24:14.350Z,7.97
2018-04-30T02:26:42.459Z,8.80
2018-04-30T02:29:10.573Z,8.40
2018-04-30T02:31:38.668Z,9.38
2018-04-30T02:34:07.574Z,8.57
2018-04-30T02:36:35.684Z,8.63
2018-04-30T02:39:03.788Z,10.00
2018-04-30T02:41:31.902Z,9.20
2018-04-30T02:44:00.786Z,7.55
2018-04-30T02:46:29.689Z,7.75
2018-04-30T02:48:58.566Z,8.75
2018-04-30T02:51:26.689Z,8.02
2018-04-30T02:53:54.805Z,7.07
2018-04-30T02:56:22.919Z,7.82
2018-04-30T02:58:51.794Z,7.70
2018-04-30T03:01:19.914Z,7.60
2018-04-30T03:03:48.022Z,7.82
2018-04-30T03:06:16.169Z,7.85
2018-04-30T03:08:44.270Z,9.00
2018-04-30T03:11:12.374Z,6.72
2018-04-30T03:13:40.499Z,9.18
2018-04-30T03:16:08.608Z,6.55
2018-04-30T03:18:36.741Z,9.10
2018-04-30T03:21:04.846Z,7.10
2018-04-30T03:23:32.969Z,6.80
2018-04-30T03:26:01.833Z,7.25
2018-04-30T03:28:29.954Z,6.85
2018-04-30T03:30:58.837Z,7.65
2018-04-30T03:33:27.745Z,9.30
2018-04-30T03:35:56.619Z,7.10
2018-04-30T03:38:24.720Z,7.05
2018-04-30T03:40:52.851Z,7.20
2018-04-30T03:43:20.988Z,10.10
2018-04-30T03:45:49.123Z,9.43
2018-04-30T03:48:17.245Z,13.43
2018-04-30T03:50:45.381Z,15.82
2018-04-30T03:53:14.284Z,20.65
2018-04-30T03:55:43.198Z,18.42
2018-04-30T03:58:11.318Z,21.42
2018-04-30T04:00:57.433Z,16.80
2018-04-30T04:03:43.420Z,17.83
2018-04-30T04:06:29.431Z,13.88
2018-04-30T04:08:57.554Z,11.88
2018-04-30T04:11:25.691Z,11.77
2018-04-30T04:13:53.820Z,10.68
2018-04-30T04:16:21.933Z,11.38
2018-04-30T04:18:50.815Z,11.05
2018-04-30T04:21:19.705Z,8.20
2018-04-30T04:23:47.820Z,7.97
2018-04-30T04:26:15.926Z,7.90
2018-04-30T04:28:44.058Z,9.90
2018-04-30T04:31:12.937Z,7.82
2018-04-30T04:33:41.829Z,10.20
2018-04-30T04:36:10.771Z,8.05
2018-04-30T04:38:38.926Z,5.95
2018-04-30T04:41:07.041Z,7.87
2018-04-30T04:43:35.164Z,8.80
2018-04-30T04:46:04.044Z,7.43
2018-04-30T04:48:32.640Z,8.27
2018-04-30T04:51:01.571Z,6.90
2018-04-30T04:53:29.674Z,8.02
2018-04-30T04:55:57.814Z,9.27
2018-04-30T04:58:25.924Z,8.02
2018-04-30T05:00:54.030Z,7.62
2018-04-30T05:03:22.148Z,7.20
2018-04-30T05:05:50.272Z,6.70
2018-04-30T05:08:18.395Z,6.85
2018-04-30T05:10:47.289Z,9.25
2018-04-30T05:13:16.160Z,6.25
2018-04-30T05:15:45.045Z,7.28
2018-04-30T05:18:13.175Z,5.53
2018-04-30T05:20:41.283Z,6.32
2018-04-30T05:23:09.402Z,6.70
2018-04-30T05:25:38.274Z,11.27
2018-04-30T05:28:07.909Z,9.50
2018-04-30T05:30:36.780Z,9.73
2018-04-30T05:33:04.897Z,10.18
2018-04-30T05:35:33.027Z,8.98
2018-04-30T05:38:02.224Z,9.32
2018-04-30T05:40:30.345Z,9.32
2018-04-30T05:42:58.446Z,8.98
2018-04-30T05:45:26.580Z,9.63
2018-04-30T05:47:54.729Z,9.85
2018-04-30T05:50:23.596Z,7.28
2018-04-30T05:52:51.770Z,8.15
2018-04-30T05:55:19.919Z,8.40
2018-04-30T05:57:48.797Z,9.52
2018-04-30T06:00:16.902Z,6.50
2018-04-30T06:02:45.023Z,7.37
2018-04-30T06:05:13.123Z,7.43
2018-04-30T06:07:41.242Z,8.15
2018-04-30T06:10:09.350Z,8.25
2018-04-30T06:12:37.487Z,9.05
2018-04-30T06:15:05.640Z,5.72
2018-04-30T06:17:33.761Z,8.20
2018-04-30T06:20:01.869Z,8.20
2018-04-30T06:22:29.978Z,9.50
2018-04-30T06:24:59.006Z,8.68
2018-04-30T06:27:27.583Z,10.40
2018-04-30T06:29:55.713Z,7.43
2018-04-30T06:32:23.826Z,9.30
2018-04-30T06:34:52.724Z,7.15
2018-04-30T06:37:21.594Z,5.97
2018-04-30T06:39:49.712Z,4.62
2018-04-30T06:42:17.823Z,6.22
2018-04-30T06:44:47.464Z,5.85
2018-04-30T06:47:15.561Z,7.78
2018-04-30T06:49:45.408Z,8.27
2018-04-30T06:52:13.548Z,6.03
2018-04-30T06:54:42.472Z,7.15
2018-04-30T06:57:10.596Z,7.25
2018-04-30T06:59:38.706Z,11.25
2018-04-30T07:02:07.604Z,7.82
2018-04-30T07:04:36.476Z,6.93
2018-04-30T07:07:04.601Z,7.80
2018-04-30T07:09:32.792Z,5.60
2018-04-30T07:12:00.836Z,8.13
2018-04-30T07:14:29.030Z,3.97
2018-04-30T07:16:57.132Z,7.53
2018-04-30T07:19:25.298Z,5.07
2018-04-30T07:21:53.472Z,6.75
2018-04-30T07:24:22.333Z,8.60
2018-04-30T07:26:51.223Z,5.57
2018-04-30T07:29:20.093Z,5.72
2018-04-30T07:31:48.242Z,3.92
2018-04-30T07:34:16.369Z,7.70
2018-04-30T07:36:45.253Z,8.40
2018-04-30T07:39:13.369Z,4.72
2018-04-30T07:41:41.496Z,5.37
2018-04-30T07:44:09.607Z,3.75
2018-04-30T07:46:38.477Z,3.30
2018-04-30T07:49:06.670Z,9.43
2018-04-30T07:51:34.725Z,3.83
2018-04-30T07:54:04.415Z,5.60
2018-04-30T07:56:32.539Z,4.60
2018-04-30T07:59:01.438Z,4.43
2018-04-30T08:01:30.317Z,3.92
2018-04-30T08:03:59.781Z,2.97
2018-04-30T08:06:27.894Z,4.15
2018-04-30T08:08:57.521Z,3.22
2018-04-30T08:11:26.395Z,1.95
2018-04-30T08:13:55.274Z,2.00
2018-04-30T08:16:23.385Z,1.90
2018-04-30T08:18:52.284Z,3.78
2018-04-30T08:21:21.174Z,4.62
2018-04-30T08:23:50.054Z,2.37
2018-04-30T08:26:19.667Z,1.73
2018-04-30T08:28:47.766Z,2.35
2018-04-30T08:31:16.655Z,1.33
2018-04-30T08:33:45.528Z,2.30
2018-04-30T08:36:13.654Z,2.37
2018-04-30T08:38:41.767Z,3.50
2018-04-30T08:41:09.888Z,5.22
2018-04-30T08:43:38.772Z,1.52
2018-04-30T08:46:07.687Z,1.08
2018-04-30T08:48:35.804Z,0.90
2018-04-30T08:51:03.920Z,1.37
2018-04-30T08:53:32.799Z,2.58
2018-04-30T08:56:01.707Z,1.42
2018-04-30T08:58:30.592Z,1.77
2018-04-30T09:00:59.457Z,1.52
2018-04-30T09:03:27.563Z,1.27
2018-04-30T09:05:55.672Z,1.83
2018-04-30T09:08:23.797Z,1.60
2018-04-30T09:10:51.916Z,1.92
2018-04-30T09:13:20.786Z,1.92
2018-04-30T09:15:48.906Z,1.20
2018-04-30T09:18:17.021Z,1.65
2018-04-30T09:20:45.135Z,0.60
2018-04-30T09:23:14.024Z,2.05
2018-04-30T09:25:42.918Z,4.22
2018-04-30T09:28:11.907Z,0.60
2018-04-30T09:30:40.000Z,1.70
2018-04-30T09:33:08.903Z,4.12
2018-04-30T09:35:37.786Z,1.08
2018-04-30T09:38:06.683Z,2.83
2018-04-30T09:40:35.645Z,3.75
2018-04-30T09:43:03.779Z,0.40
2018-04-30T09:45:31.883Z,2.60
2018-04-30T09:48:00.014Z,0.17
2018-04-30T09:50:28.899Z,7.22
2018-04-30T09:52:57.804Z,1.65
2018-04-30T09:55:26.676Z,2.03
2018-04-30T09:57:54.877Z,0.95
2018-04-30T10:00:23.792Z,1.90
2018-04-30T10:02:51.906Z,2.45
2018-04-30T10:05:20.034Z,0.32
2018-04-30T10:07:48.907Z,0.77
2018-04-30T10:10:17.028Z,1.05
2018-04-30T10:12:45.140Z,1.02
2018-04-30T10:15:13.271Z,0.17
2018-04-30T10:17:41.414Z,1.45
2018-04-30T10:20:09.560Z,0.55
2018-04-30T10:22:37.684Z,0.40
2018-04-30T10:25:06.562Z,0.55
2018-04-30T10:27:35.445Z,0.50
2018-04-30T10:30:03.545Z,0.73
2018-04-30T10:32:32.534Z,0.22
2018-04-30T10:35:00.647Z,0.75
2018-04-30T10:37:28.831Z,0.60
2018-04-30T10:39:56.928Z,1.60
2018-04-30T10:42:25.093Z,0.45
2018-04-30T10:44:53.197Z,0.32
2018-04-30T10:47:21.296Z,0.77
2018-04-30T10:49:49.409Z,5.37
2018-04-30T10:52:17.531Z,0.93
2018-04-30T10:54:45.679Z,1.20
2018-04-30T10:57:13.796Z,1.65
2018-04-30T10:59:42.684Z,0.47
2018-04-30T11:02:10.783Z,0.50
2018-04-30T11:04:38.931Z,1.12
2018-04-30T11:07:07.041Z,0.25
2018-04-30T11:09:35.905Z,3.00
2018-04-30T11:12:04.070Z,0.98
2018-04-30T11:14:32.182Z,0.60
2018-04-30T11:17:01.809Z,0.30
2018-04-30T11:19:30.693Z,0.20
2018-04-30T11:21:58.813Z,0.47
2018-04-30T11:24:26.933Z,1.45
2018-04-30T11:26:55.070Z,0.37
2018-04-30T11:29:23.176Z,0.37
2018-04-30T11:31:51.286Z,0.68
2018-04-30T11:34:20.181Z,0.60
2018-04-30T11:36:49.065Z,1.83
2018-04-30T11:39:17.957Z,1.37
2018-04-30T11:41:46.844Z,2.12
2018-04-30T11:44:14.980Z,0.60
2018-04-30T11:46:43.150Z,1.87
2018-04-30T11:49:11.294Z,0.68
2018-04-30T11:51:40.186Z,0.20
2018-04-30T11:54:09.077Z,0.85
2018-04-30T11:56:37.975Z,0.43
2018-04-30T11:59:06.876Z,1.20
2018-04-30T12:01:35.775Z,1.70
2018-04-30T12:04:05.373Z,0.57
2018-04-30T12:06:33.496Z,0.62
2018-04-30T12:09:01.617Z,1.77
2018-04-30T12:11:29.753Z,5.68
2018-04-30T12:13:58.066Z,0.50
2018-04-30T12:16:26.195Z,0.77
2018-04-30T12:18:54.328Z,0.82
2018-04-30T12:21:23.993Z,1.52
2018-04-30T12:23:52.121Z,1.45
2018-04-30T12:26:20.241Z,1.10
2018-04-30T12:28:49.256Z,0.57
2018-04-30T12:31:17.370Z,1.42
2018-04-30T12:33:46.258Z,0.60
2018-04-30T12:36:14.394Z,1.83
2018-04-30T12:38:42.523Z,1.27
2018-04-30T12:41:10.646Z,0.10
2018-04-30T12:43:38.841Z,0.60
2018-04-30T12:46:06.880Z,0.20
2018-04-30T12:48:35.774Z,0.40
2018-04-30T12:51:04.657Z,0.55
2018-04-30T12:53:32.788Z,0.77
2018-04-30T12:56:00.918Z,0.88
2018-04-30T12:58:29.814Z,0.55
2018-04-30T13:00:58.709Z,0.40
2018-04-30T13:03:27.601Z,0.52
2018-04-30T13:05:56.499Z,0.10
2018-04-30T13:08:25.398Z,3.83
2018-04-30T13:10:54.288Z,0.10
2018-04-30T13:13:23.195Z,0.52
2018-04-30T13:15:52.085Z,1.73
2018-04-30T13:18:20.208Z,0.32
2018-04-30T13:20:48.350Z,1.27
2018-04-30T13:23:17.237Z,0.93
2018-04-30T13:25:46.128Z,0.68
2018-04-30T13:28:15.013Z,3.95
2018-04-30T13:30:43.892Z,0.15
2018-04-30T13:33:12.014Z,0.93
2018-04-30T13:35:40.132Z,0.15
2018-04-30T13:38:08.268Z,0.60
2018-04-30T13:40:36.381Z,0.22
2018-04-30T13:43:04.485Z,0.62
2018-04-30T13:45:32.711Z,0.85
2018-04-30T13:48:00.808Z,0.28
2018-04-30T13:50:28.934Z,0.62
2018-04-30T13:52:57.811Z,0.77
2018-04-30T13:55:26.677Z,0.20
2018-04-30T13:57:54.796Z,0.45
2018-04-30T14:00:23.840Z,1.37
2018-04-30T14:02:51.974Z,0.35
2018-04-30T14:05:20.838Z,0.43
2018-04-30T14:07:48.948Z,0.95
2018-04-30T14:10:17.829Z,0.50
2018-04-30T14:12:45.943Z,0.62
2018-04-30T14:15:14.077Z,1.98
2018-04-30T14:17:42.177Z,0.50
2018-04-30T14:20:11.058Z,2.72
2018-04-30T14:22:39.950Z,0.10
2018-04-30T14:25:08.838Z,0.10
2018-04-30T14:27:36.957Z,0.70
2018-04-30T14:30:05.070Z,0.30
2018-04-30T14:32:33.205Z,0.60
2018-04-30T14:35:01.335Z,1.55
2018-04-30T14:37:29.433Z,0.55
2018-04-30T14:39:57.556Z,1.33
2018-04-30T14:42:25.663Z,0.52
2018-04-30T14:44:53.813Z,0.43
2018-04-30T14:47:21.923Z,0.62
2018-04-30T14:49:50.035Z,0.30
2018-04-30T14:52:19.154Z,0.25
2018-04-30T14:54:47.278Z,0.52
2018-04-30T14:57:15.389Z,0.77
2018-04-30T14:59:44.267Z,0.30
2018-04-30T15:02:12.402Z,0.10
2018-04-30T15:04:40.504Z,0.57
2018-04-30T15:07:08.626Z,0.40
2018-04-30T15:09:36.764Z,0.62
2018-04-30T15:12:05.024Z,0.43
2018-04-30T15:14:33.373Z,0.30
2018-04-30T15:17:01.485Z,0.30
2018-04-30T15:19:29.669Z,0.20
2018-04-30T15:21:58.505Z,0.43
2018-04-30T15:24:27.390Z,0.30
2018-04-30T15:26:56.269Z,0.20
2018-04-30T15:29:24.454Z,0.35
2018-04-30T15:31:52.558Z,0.68
2018-04-30T15:34:21.446Z,0.25
2018-04-30T15:36:50.325Z,0.73
2018-04-30T15:39:18.439Z,0.70
2018-04-30T15:41:46.567Z,0.85
2018-04-30T15:44:14.692Z,0.50
2018-04-30T15:46:42.841Z,0.50
2018-04-30T15:49:11.726Z,0.70
2018-04-30T15:51:39.839Z,0.70
2018-04-30T15:54:07.956Z,0.30
2018-04-30T15:56:36.079Z,0.70
2018-04-30T15:59:05.038Z,0.75
2018-04-30T16:01:33.841Z,2.40
2018-04-30T16:04:01.997Z,1.55
2018-04-30T16:06:30.153Z,1.02
2018-04-30T16:08:58.268Z,1.77
2018-04-30T16:11:26.403Z,1.30
2018-04-30T16:13:54.509Z,1.25
2018-04-30T16:16:22.612Z,2.00
2018-04-30T16:18:50.735Z,1.12
2018-04-30T16:21:18.848Z,0.50
2018-04-30T16:23:46.995Z,1.00
2018-04-30T16:26:15.114Z,0.40
2018-04-30T16:28:43.214Z,0.47
2018-04-30T16:31:12.124Z,0.70
2018-04-30T16:33:40.245Z,0.43
2018-04-30T16:36:08.370Z,0.62
2018-04-30T16:38:37.250Z,0.90
2018-04-30T16:41:05.350Z,0.45
2018-04-30T16:43:33.529Z,0.60
2018-04-30T16:46:01.594Z,0.35
2018-04-30T16:48:30.477Z,4.28
2018-04-30T16:50:59.381Z,0.88
2018-04-30T16:53:28.267Z,0.40
2018-04-30T16:55:57.147Z,1.40
2018-04-30T16:58:25.268Z,0.60
2018-04-30T17:00:53.377Z,1.35
2018-04-30T17:03:21.516Z,1.08
2018-04-30T17:05:49.629Z,1.95
2018-04-30T17:08:17.741Z,1.48
2018-04-30T17:10:46.728Z,2.35
2018-04-30T17:13:14.832Z,1.10
2018-04-30T17:15:43.726Z,0.80
2018-04-30T17:18:12.593Z,1.20
2018-04-30T17:20:40.703Z,0.70
2018-04-30T17:23:08.838Z,0.75
2018-04-30T17:25:36.952Z,1.20
2018-04-30T17:28:05.888Z,1.02
2018-04-30T17:30:34.723Z,0.98
2018-04-30T17:33:02.820Z,0.70
2018-04-30T17:35:31.709Z,1.55
2018-04-30T17:38:00.583Z,1.75
2018-04-30T17:40:28.696Z,1.25
2018-04-30T17:42:56.924Z,1.60
2018-04-30T17:45:24.981Z,1.75
2018-04-30T17:47:53.105Z,2.25
2018-04-30T17:50:21.215Z,3.72
2018-04-30T17:52:49.341Z,2.30
2018-04-30T17:55:18.971Z,2.60
2018-04-30T17:57:47.091Z,1.62
2018-04-30T18:00:15.202Z,2.72
2018-04-30T18:02:43.347Z,2.60
2018-04-30T18:05:11.465Z,3.45
2018-04-30T18:07:39.805Z,2.47
2018-04-30T18:10:07.933Z,2.08
2018-04-30T18:12:36.057Z,1.73
2018-04-30T18:15:04.229Z,1.40
2018-04-30T18:17:32.344Z,3.00
2018-04-30T18:20:00.465Z,1.35
2018-04-30T18:22:29.350Z,1.75
2018-04-30T18:24:58.234Z,2.55
2018-04-30T18:27:26.367Z,5.90
2018-04-30T18:29:54.483Z,5.78
2018-04-30T18:32:23.415Z,8.70
2018-04-30T18:34:52.281Z,11.00
2018-04-30T18:37:20.419Z,10.20
2018-04-30T18:39:48.541Z,9.90
2018-04-30T18:42:17.437Z,5.30
2018-04-30T18:44:46.334Z,3.50
2018-04-30T18:47:14.527Z,3.20
2018-04-30T18:49:42.664Z,2.55
2018-04-30T18:52:11.569Z,2.30
2018-04-30T18:54:39.705Z,2.78
2018-04-30T18:57:07.827Z,3.25
2018-04-30T18:59:35.963Z,1.83
2018-04-30T19:02:04.093Z,2.37
2018-04-30T19:04:32.988Z,2.50
2018-04-30T19:07:01.851Z,2.72
2018-04-30T19:09:29.995Z,3.10
2018-04-30T19:11:58.101Z,5.72
2018-04-30T19:14:26.247Z,5.43
2018-04-30T19:16:55.147Z,3.62
2018-04-30T19:19:23.268Z,3.17
2018-04-30T19:21:52.893Z,5.87
2018-04-30T19:24:20.993Z,5.68
2018-04-30T19:26:49.114Z,9.65
2018-04-30T19:29:17.232Z,7.00
2018-04-30T19:31:46.178Z,7.03
2018-04-30T19:34:14.241Z,6.12
2018-04-30T19:36:42.365Z,8.75
2018-04-30T19:39:10.499Z,7.47
2018-04-30T19:41:38.622Z,6.47
2018-04-30T19:44:07.540Z,4.97
2018-04-30T19:46:36.425Z,5.47
2018-04-30T19:49:05.317Z,4.32
2018-04-30T19:51:34.203Z,3.55
2018-04-30T19:54:02.446Z,2.83
2018-04-30T19:56:30.569Z,3.55
2018-04-30T19:58:58.686Z,2.17
2018-04-30T20:01:27.641Z,4.50
2018-04-30T20:03:56.589Z,5.75
2018-04-30T20:06:24.700Z,4.03
2018-04-30T20:08:52.864Z,5.47
2018-04-30T20:11:20.942Z,4.03
2018-04-30T20:13:49.048Z,3.70
2018-04-30T20:16:17.947Z,3.87
2018-04-30T20:18:46.838Z,4.05
2018-04-30T20:21:15.727Z,4.35
2018-04-30T20:23:43.870Z,3.12
2018-04-30T20:26:11.997Z,2.87
2018-04-30T20:28:40.875Z,2.67
2018-04-30T20:31:09.013Z,2.95
2018-04-30T20:33:37.129Z,3.35
2018-04-30T20:36:05.238Z,4.43
2018-04-30T20:38:33.354Z,4.03
2018-04-30T20:41:01.473Z,3.87
2018-04-30T20:43:30.356Z,3.40
2018-04-30T20:45:59.243Z,3.70
2018-04-30T20:48:27.380Z,2.97
2018-04-30T20:50:55.498Z,3.28
2018-04-30T20:53:23.619Z,3.28
2018-04-30T20:55:51.746Z,6.00
2018-04-30T20:58:19.854Z,3.30
2018-04-30T21:00:48.778Z,5.12
2018-04-30T21:03:16.939Z,5.03
2018-04-30T21:05:45.062Z,4.78
2018-04-30T21:08:13.169Z,8.18
2018-04-30T21:10:41.287Z,5.95
2018-04-30T21:13:09.410Z,6.97
2018-04-30T21:15:37.543Z,6.37
2018-04-30T21:18:05.681Z,7.47
2018-04-30T21:20:34.555Z,8.05
2018-04-30T21:23:02.688Z,11.70
2018-04-30T21:25:30.892Z,10.30
2018-04-30T21:27:59.730Z,9.30
2018-04-30T21:30:28.610Z,10.05
2018-04-30T21:32:56.748Z,8.00
2018-04-30T21:35:24.857Z,9.90
2018-04-30T21:37:53.769Z,11.05
2018-04-30T21:40:22.655Z,9.43
2018-04-30T21:42:50.779Z,8.68
2018-04-30T21:45:18.901Z,10.77
2018-04-30T21:47:47.010Z,11.70
2018-04-30T21:50:15.917Z,11.43
2018-04-30T21:52:44.037Z,15.35
2018-04-30T21:55:12.176Z,14.75
2018-04-30T21:57:40.301Z,12.50
2018-04-30T22:00:08.402Z,15.32
2018-04-30T22:02:37.327Z,10.18
2018-04-30T22:05:05.506Z,12.25
2018-04-30T22:07:33.627Z,9.98
2018-04-30T22:10:01.744Z,9.07
2018-04-30T22:12:30.647Z,10.23
2018-04-30T22:14:58.766Z,12.55
2018-04-30T22:17:26.909Z,13.50
2018-04-30T22:19:55.073Z,10.40
2018-04-30T22:22:23.958Z,10.82
2018-04-30T22:24:52.849Z,11.73
2018-04-30T22:27:21.729Z,13.70
2018-04-30T22:29:49.872Z,13.40
2018-04-30T22:32:18.089Z,15.48
2018-04-30T22:34:46.220Z,11.77
2018-04-30T22:37:14.337Z,12.57
2018-04-30T22:39:42.476Z,14.18
2018-04-30T22:42:10.573Z,13.52
2018-04-30T22:44:38.677Z,13.38
2018-04-30T22:47:06.801Z,13.18
2018-04-30T22:49:34.929Z,12.93
2018-04-30T22:52:03.043Z,11.05
2018-04-30T22:54:31.155Z,13.20
2018-04-30T22:56:59.285Z,12.60
2018-04-30T22:59:28.171Z,15.25
2018-04-30T23:01:57.063Z,16.15
2018-04-30T23:04:25.955Z,15.05
2018-04-30T23:06:54.850Z,16.25
2018-04-30T23:09:23.729Z,14.20
2018-04-30T23:11:51.842Z,14.15
2018-04-30T23:14:19.966Z,14.30
2018-04-30T23:16:48.075Z,13.13
2018-04-30T23:19:16.973Z,13.62
2018-04-30T23:21:45.849Z,13.73
2018-04-30T23:24:13.968Z,14.87
2018-04-30T23:26:42.080Z,13.15
2018-04-30T23:29:10.217Z,13.05
2018-04-30T23:31:38.342Z,12.70
2018-04-30T23:34:06.494Z,14.95
2018-04-30T23:36:34.627Z,13.98
2018-04-30T23:39:03.529Z,16.00
2018-04-30T23:41:32.438Z,15.45
2018-04-30T23:44:00.559Z,13.18
2018-04-30T23:46:28.678Z,12.00
2018-04-30T23:48:57.558Z,13.27
2018-04-30T23:51:25.662Z,11.55
2018-04-30T23:53:54.558Z,10.57
2018-04-30T23:56:22.747Z,12.23
2018-04-30T23:58:50.875Z,10.57
